createdAt,value
2018-07-25T00:01:26.035Z,66.40
2018-07-25T00:03:53.795Z,66.60
2018-07-25T00:06:21.587Z,66.90
2018-07-25T00:08:49.354Z,66.40
2018-07-25T00:11:17.112Z,66.70
2018-07-25T00:13:44.950Z,66.40
2018-07-25T00:16:12.778Z,66.90
2018-07-25T00:18:40.601Z,67.30
2018-07-25T00:21:08.375Z,67.80
2018-07-25T00:23:36.361Z,68.20
2018-07-25T00:26:04.290Z,68.30
2018-07-25T00:28:32.026Z,69.30
2018-07-25T00:30:59.802Z,70.70
2018-07-25T00:33:27.551Z,72.70
2018-07-25T00:35:55.404Z,74.40
2018-07-25T00:38:23.214Z,76.60
2018-07-25T00:40:50.965Z,77.70
2018-07-25T00:43:18.778Z,78.70
2018-07-25T00:45:46.546Z,79.30
2018-07-25T00:48:14.301Z,79.10
2018-07-25T00:50:42.104Z,79.20
2018-07-25T00:55:37.567Z,77.20
2018-07-25T00:58:05.490Z,78.60
2018-07-25T01:00:33.254Z,78.10
2018-07-25T01:03:01.043Z,75.70
2018-07-25T01:05:28.962Z,75.80
2018-07-25T01:10:24.447Z,76.00
2018-07-25T01:12:52.227Z,75.80
2018-07-25T01:15:19.938Z,75.90
2018-07-25T01:17:47.768Z,76.10
2018-07-25T01:20:15.537Z,76.80
2018-07-25T01:22:43.250Z,77.50
2018-07-25T01:25:11.106Z,77.70
2018-07-25T01:27:38.810Z,77.90
2018-07-25T01:30:06.617Z,78.50
2018-07-25T01:32:34.383Z,77.70
2018-07-25T01:35:02.238Z,78.10
2018-07-25T01:37:30.116Z,77.20
2018-07-25T01:39:57.842Z,76.50
2018-07-25T01:42:25.651Z,76.60
2018-07-25T01:44:53.463Z,76.50
2018-07-25T01:47:21.219Z,75.10
2018-07-25T01:49:49.009Z,74.60
2018-07-25T01:52:16.790Z,74.20
2018-07-25T01:54:44.651Z,72.50
2018-07-25T01:57:12.462Z,71.40
2018-07-25T01:59:40.246Z,71.10
2018-07-25T02:02:08.006Z,70.70
2018-07-25T02:04:35.910Z,70.90
2018-07-25T02:07:03.683Z,71.20
2018-07-25T02:09:31.454Z,70.90
2018-07-25T02:11:59.332Z,70.80
2018-07-25T02:14:27.106Z,70.80
2018-07-25T02:16:54.835Z,71.00
2018-07-25T02:19:22.664Z,71.30
2018-07-25T02:21:50.394Z,71.40
2018-07-25T02:24:18.155Z,70.70
2018-07-25T02:26:46.047Z,70.90
2018-07-25T02:29:13.862Z,70.50
2018-07-25T02:31:41.684Z,70.50
2018-07-25T02:34:15.561Z,70.60
2018-07-25T02:36:43.387Z,71.10
2018-07-25T02:39:12.731Z,71.40
2018-07-25T02:41:40.754Z,72.10
2018-07-25T02:44:08.600Z,72.30
2018-07-25T02:46:36.430Z,72.50
2018-07-25T02:49:04.213Z,73.40
2018-07-25T02:51:32.755Z,74.40
2018-07-25T02:54:00.526Z,77.90
2018-07-25T02:56:28.363Z,81.40
2018-07-25T02:58:56.188Z,82.60
2018-07-25T03:01:23.951Z,83.00
2018-07-25T03:03:51.724Z,83.30
2018-07-25T03:06:19.550Z,83.20
2018-07-25T03:08:47.252Z,83.00
2018-07-25T03:11:15.091Z,83.00
2018-07-25T03:13:43.811Z,82.70
2018-07-25T03:16:12.316Z,82.80
2018-07-25T03:18:40.125Z,82.40
2018-07-25T03:21:08.324Z,81.40
2018-07-25T03:23:36.981Z,81.40
2018-07-25T03:26:04.802Z,81.40
2018-07-25T03:28:32.638Z,81.70
2018-07-25T03:31:00.715Z,81.90
2018-07-25T03:33:28.517Z,83.20
2018-07-25T03:35:57.265Z,84.80
2018-07-25T03:38:25.463Z,85.10
2018-07-25T03:40:53.214Z,84.30
2018-07-25T03:43:21.014Z,81.90
2018-07-25T03:45:48.826Z,80.30
2018-07-25T03:48:16.594Z,78.30
2018-07-25T03:50:44.395Z,77.80
2018-07-25T03:53:12.140Z,77.20
2018-07-25T03:55:39.903Z,77.50
2018-07-25T03:58:07.786Z,77.50
2018-07-25T04:00:35.634Z,77.50
2018-07-25T04:03:03.361Z,77.20
2018-07-25T04:05:31.125Z,77.20
2018-07-25T04:07:58.834Z,77.00
2018-07-25T04:10:26.562Z,77.20
2018-07-25T04:12:54.544Z,78.90
2018-07-25T04:15:22.322Z,78.10
2018-07-25T04:20:18.882Z,76.90
2018-07-25T04:22:46.604Z,75.40
2018-07-25T04:25:14.439Z,74.00
2018-07-25T04:27:43.168Z,72.20
2018-07-25T04:30:11.943Z,70.50
2018-07-25T04:32:41.634Z,69.90
2018-07-25T04:35:10.891Z,69.90
2018-07-25T04:37:38.871Z,70.30
2018-07-25T04:40:07.405Z,71.30
2018-07-25T04:42:35.351Z,74.50
2018-07-25T04:45:03.186Z,76.90
2018-07-25T04:47:30.930Z,77.40
2018-07-25T04:49:58.726Z,78.30
2018-07-25T04:52:26.591Z,77.90
2018-07-25T04:54:54.369Z,77.50
2018-07-25T04:57:22.170Z,78.00
2018-07-25T04:59:49.995Z,77.60
2018-07-25T05:02:17.773Z,77.50
2018-07-25T05:04:45.458Z,78.00
2018-07-25T05:07:13.348Z,77.80
2018-07-25T05:09:41.063Z,77.00
2018-07-25T05:12:08.798Z,77.40
2018-07-25T05:14:36.555Z,76.70
2018-07-25T05:17:04.347Z,76.80
2018-07-25T05:19:32.203Z,77.40
2018-07-25T05:21:59.994Z,77.60
2018-07-25T05:24:27.822Z,78.80
2018-07-25T05:26:55.871Z,78.70
2018-07-25T05:29:24.026Z,78.20
2018-07-25T05:31:51.918Z,77.80
2018-07-25T05:34:19.671Z,78.00
2018-07-25T05:36:48.389Z,79.00
2018-07-25T05:39:16.117Z,79.00
2018-07-25T05:41:43.866Z,78.50
2018-07-25T05:44:11.633Z,78.20
2018-07-25T05:46:39.501Z,77.10
2018-07-25T05:49:07.283Z,76.30
2018-07-25T05:51:35.210Z,76.60
2018-07-25T05:54:03.167Z,76.50
2018-07-25T05:56:30.970Z,75.50
2018-07-25T05:58:59.284Z,75.50
2018-07-25T06:03:54.651Z,77.80
2018-07-25T06:06:22.698Z,79.60
2018-07-25T06:08:50.527Z,79.90
2018-07-25T06:11:18.414Z,79.70
2018-07-25T06:13:46.239Z,79.50
2018-07-25T06:16:13.962Z,78.90
2018-07-25T06:18:41.692Z,78.40
2018-07-25T06:21:09.605Z,77.90
2018-07-25T06:23:37.490Z,77.10
2018-07-25T06:26:05.569Z,76.90
2018-07-25T06:28:33.354Z,76.70
2018-07-25T06:31:01.167Z,76.30
2018-07-25T06:33:28.919Z,76.30
2018-07-25T06:35:56.746Z,75.70
2018-07-25T06:38:24.602Z,75.10
2018-07-25T06:40:52.449Z,74.10
2018-07-25T06:43:20.177Z,70.70
2018-07-25T06:45:47.966Z,68.70
2018-07-25T06:48:16.132Z,65.40
2018-07-25T06:50:43.878Z,61.60
2018-07-25T06:53:11.599Z,58.90
2018-07-25T06:55:39.270Z,56.90
2018-07-25T06:58:07.195Z,54.20
2018-07-25T07:00:35.008Z,54.60
2018-07-25T07:03:02.910Z,53.20
2018-07-25T07:05:30.682Z,51.60
2018-07-25T07:07:58.511Z,51.20
2018-07-25T07:10:26.570Z,50.80
2018-07-25T07:12:55.062Z,50.00
2018-07-25T07:15:22.919Z,48.30
2018-07-25T07:17:50.662Z,45.70
2018-07-25T07:20:18.431Z,43.70
2018-07-25T07:22:46.170Z,43.70
2018-07-25T07:25:13.923Z,42.50
2018-07-25T07:27:41.646Z,39.80
2018-07-25T07:30:09.355Z,39.00
2018-07-25T07:32:37.038Z,38.40
2018-07-25T07:35:04.913Z,38.20
2018-07-25T07:37:32.618Z,36.80
2018-07-25T07:40:00.234Z,36.20
2018-07-25T07:42:27.946Z,35.50
2018-07-25T07:44:55.830Z,34.60
2018-07-25T07:47:23.704Z,33.30
2018-07-25T07:49:51.483Z,32.40
2018-07-25T07:52:19.192Z,32.50
2018-07-25T07:54:46.847Z,32.20
2018-07-25T07:59:42.236Z,32.10
2018-07-25T08:02:09.963Z,31.60
2018-07-25T08:04:37.710Z,31.50
2018-07-25T08:07:05.454Z,30.90
2018-07-25T08:09:33.200Z,30.50
2018-07-25T08:12:01.165Z,29.60
2018-07-25T08:14:28.870Z,29.10
2018-07-25T08:16:56.594Z,29.10
2018-07-25T08:19:24.242Z,28.60
2018-07-25T08:21:52.034Z,28.50
2018-07-25T08:24:19.811Z,28.70
2018-07-25T08:26:47.531Z,28.40
2018-07-25T08:29:15.303Z,27.90
2018-07-25T08:31:43.058Z,27.60
2018-07-25T08:34:10.771Z,26.70
2018-07-25T08:36:38.524Z,26.40
2018-07-25T08:39:07.714Z,26.00
2018-07-25T08:41:35.496Z,25.90
2018-07-25T08:44:04.391Z,26.40
2018-07-25T08:46:32.148Z,26.20
2018-07-25T08:48:59.851Z,26.00
2018-07-25T08:51:27.509Z,25.50
2018-07-25T08:53:55.200Z,25.20
2018-07-25T08:56:22.854Z,24.60
2018-07-25T08:58:50.610Z,24.30
2018-07-25T09:01:18.299Z,24.60
2018-07-25T09:03:46.019Z,25.00
2018-07-25T09:06:13.715Z,25.30
2018-07-25T09:08:41.619Z,24.50
2018-07-25T09:11:09.362Z,24.30
2018-07-25T09:13:37.060Z,24.70
2018-07-25T09:16:04.794Z,25.30
2018-07-25T09:18:32.467Z,24.90
2018-07-25T09:21:00.206Z,24.40
2018-07-25T09:23:27.948Z,23.30
2018-07-25T09:25:55.704Z,23.50
2018-07-25T09:30:51.067Z,24.70
2018-07-25T09:33:18.734Z,24.60
2018-07-25T09:35:46.414Z,24.10
2018-07-25T09:38:14.178Z,23.80
2018-07-25T09:40:41.972Z,23.90
2018-07-25T09:43:09.703Z,23.00
2018-07-25T09:45:37.458Z,23.70
2018-07-25T09:48:05.195Z,23.70
2018-07-25T09:50:32.976Z,24.50
2018-07-25T09:53:00.761Z,23.50
2018-07-25T09:55:28.512Z,23.40
2018-07-25T09:57:56.155Z,24.20
2018-07-25T10:00:29.547Z,24.80
2018-07-25T10:02:57.210Z,24.50
2018-07-25T10:05:24.927Z,24.30
2018-07-25T10:07:52.623Z,24.00
2018-07-25T10:10:20.363Z,23.90
2018-07-25T10:12:48.158Z,24.50
2018-07-25T10:15:15.931Z,24.70
2018-07-25T10:17:43.714Z,25.30
2018-07-25T10:20:11.471Z,24.80
2018-07-25T10:22:39.219Z,24.80
2018-07-25T10:25:06.988Z,24.50
2018-07-25T10:27:34.729Z,24.40
2018-07-25T10:30:02.617Z,24.60
2018-07-25T10:32:30.370Z,24.80
2018-07-25T10:34:58.410Z,24.90
2018-07-25T10:37:26.145Z,25.40
2018-07-25T10:39:54.120Z,26.10
2018-07-25T10:42:21.844Z,26.40
2018-07-25T10:44:50.360Z,25.90
2018-07-25T10:47:18.064Z,25.60
2018-07-25T10:49:45.784Z,24.50
2018-07-25T10:54:42.626Z,24.70
2018-07-25T10:57:10.349Z,24.80
2018-07-25T10:59:38.070Z,24.30
2018-07-25T11:02:05.990Z,24.60
2018-07-25T11:04:33.745Z,25.10
2018-07-25T11:07:01.568Z,24.80
2018-07-25T11:09:29.292Z,24.30
2018-07-25T11:11:57.102Z,24.40
2018-07-25T11:14:24.752Z,24.10
2018-07-25T11:16:52.541Z,24.10
2018-07-25T11:19:20.306Z,24.90
2018-07-25T11:24:15.907Z,26.40
2018-07-25T11:26:43.654Z,26.80
2018-07-25T11:29:11.403Z,27.90
2018-07-25T11:31:39.169Z,28.30
2018-07-25T11:34:06.942Z,29.30
2018-07-25T11:36:34.654Z,29.40
2018-07-25T11:39:02.835Z,30.00
2018-07-25T11:41:30.579Z,29.50
2018-07-25T11:43:58.947Z,30.40
2018-07-25T11:48:54.334Z,31.00
2018-07-25T11:51:22.295Z,30.70
2018-07-25T11:53:50.023Z,31.60
2018-07-25T11:56:17.779Z,31.30
2018-07-25T11:58:45.491Z,32.40
2018-07-25T12:01:13.285Z,31.60
2018-07-25T12:03:40.930Z,30.50
2018-07-25T12:06:08.677Z,31.40
2018-07-25T12:08:36.431Z,31.40
2018-07-25T12:11:05.792Z,33.80
2018-07-25T12:13:33.463Z,34.90
2018-07-25T12:16:01.231Z,36.30
2018-07-25T12:18:29.238Z,37.00
2018-07-25T12:20:57.008Z,36.80
2018-07-25T12:23:24.755Z,36.20
2018-07-25T12:25:52.499Z,36.40
2018-07-25T12:28:20.485Z,36.10
2018-07-25T12:30:48.194Z,36.40
2018-07-25T12:33:16.709Z,36.10
2018-07-25T12:35:44.572Z,35.50
2018-07-25T12:38:12.312Z,35.90
2018-07-25T12:40:40.006Z,36.20
2018-07-25T12:43:07.778Z,35.90
2018-07-25T12:45:35.523Z,36.10
2018-07-25T12:48:03.340Z,36.20
2018-07-25T12:50:31.019Z,35.90
2018-07-25T12:52:58.767Z,35.50
2018-07-25T12:55:26.504Z,35.60
2018-07-25T12:57:54.290Z,35.50
2018-07-25T13:00:22.058Z,35.80
2018-07-25T13:02:49.862Z,35.30
2018-07-25T13:05:17.481Z,34.50
2018-07-25T13:07:45.134Z,34.60
2018-07-25T13:10:13.456Z,34.60
2018-07-25T13:12:41.189Z,35.00
2018-07-25T13:15:08.954Z,34.70
2018-07-25T13:17:36.687Z,35.10
2018-07-25T13:20:04.830Z,35.10
2018-07-25T13:22:32.647Z,33.80
2018-07-25T13:25:00.407Z,33.20
2018-07-25T13:27:28.142Z,34.00
2018-07-25T13:29:55.899Z,34.10
2018-07-25T13:32:23.804Z,33.60
2018-07-25T13:34:51.528Z,34.10
2018-07-25T13:37:19.338Z,34.40
2018-07-25T13:39:47.276Z,32.80
2018-07-25T13:42:15.032Z,32.50
2018-07-25T13:44:42.804Z,32.30
2018-07-25T13:47:11.035Z,32.20
2018-07-25T13:49:38.726Z,33.90
2018-07-25T13:52:06.510Z,34.90
2018-07-25T13:54:34.262Z,34.60
2018-07-25T13:57:01.966Z,34.80
2018-07-25T13:59:29.680Z,34.40
2018-07-25T14:01:57.406Z,35.30
2018-07-25T14:04:25.212Z,35.70
2018-07-25T14:06:52.915Z,36.30
2018-07-25T14:09:20.626Z,36.30
2018-07-25T14:11:48.402Z,37.20
2018-07-25T14:14:16.063Z,35.90
2018-07-25T14:16:49.057Z,35.80
2018-07-25T14:19:16.807Z,34.70
2018-07-25T14:21:44.624Z,34.30
2018-07-25T14:24:12.385Z,35.10
2018-07-25T14:26:40.174Z,34.70
2018-07-25T14:29:07.920Z,32.70
2018-07-25T14:31:35.927Z,30.40
2018-07-25T14:34:03.690Z,30.50
2018-07-25T14:36:31.495Z,31.60
2018-07-25T14:38:59.257Z,32.20
2018-07-25T14:41:26.968Z,31.00
2018-07-25T14:43:54.684Z,31.00
2018-07-25T14:48:50.109Z,30.40
2018-07-25T14:51:17.992Z,30.70
2018-07-25T14:53:45.630Z,31.20
2018-07-25T14:56:13.605Z,31.40
2018-07-25T14:58:41.354Z,31.30
2018-07-25T15:01:09.137Z,30.10
2018-07-25T15:03:36.858Z,31.50
2018-07-25T15:06:05.476Z,31.20
2018-07-25T15:08:33.230Z,30.80
2018-07-25T15:11:01.013Z,30.10
2018-07-25T15:13:29.086Z,30.60
2018-07-25T15:15:56.843Z,30.00
2018-07-25T15:18:24.634Z,30.70
2018-07-25T15:20:52.646Z,31.30
2018-07-25T15:23:31.603Z,31.70
2018-07-25T15:25:59.445Z,31.10
2018-07-25T15:28:27.283Z,31.30
2018-07-25T15:30:55.077Z,31.20
2018-07-25T15:33:22.882Z,31.40
2018-07-25T15:35:50.607Z,31.60
2018-07-25T15:38:18.331Z,31.90
2018-07-25T15:40:46.036Z,31.10
2018-07-25T15:43:13.792Z,31.00
2018-07-25T15:45:41.550Z,30.90
2018-07-25T15:48:09.547Z,31.90
2018-07-25T15:53:05.068Z,31.70
2018-07-25T15:55:34.675Z,32.30
2018-07-25T15:58:02.454Z,32.50
2018-07-25T16:00:30.215Z,32.00
2018-07-25T16:02:58.164Z,32.20
2018-07-25T16:05:25.962Z,32.20
2018-07-25T16:07:53.770Z,32.40
2018-07-25T16:10:21.565Z,31.40
2018-07-25T16:12:49.298Z,30.90
2018-07-25T16:15:17.031Z,31.00
2018-07-25T16:17:44.762Z,31.10
2018-07-25T16:20:12.542Z,31.80
2018-07-25T16:22:40.318Z,31.90
2018-07-25T16:25:08.439Z,32.20
2018-07-25T16:27:36.451Z,31.60
2018-07-25T16:30:04.739Z,31.20
2018-07-25T16:32:32.515Z,31.40
2018-07-25T16:35:00.250Z,30.50
2018-07-25T16:37:27.984Z,30.40
2018-07-25T16:39:55.730Z,31.10
2018-07-25T16:42:23.458Z,31.10
2018-07-25T16:44:51.298Z,30.20
2018-07-25T16:47:19.112Z,30.20
2018-07-25T16:49:47.166Z,30.70
2018-07-25T16:52:14.882Z,30.80
2018-07-25T16:57:10.400Z,31.20
2018-07-25T16:59:38.170Z,31.60
2018-07-25T17:02:05.903Z,31.90
2018-07-25T17:04:33.671Z,31.40
2018-07-25T17:07:01.433Z,31.60
2018-07-25T17:09:29.416Z,31.10
2018-07-25T17:11:57.142Z,31.00
2018-07-25T17:14:24.915Z,32.00
2018-07-25T17:16:52.650Z,31.70
2018-07-25T17:19:20.547Z,31.20
2018-07-25T17:21:50.295Z,32.00
2018-07-25T17:24:18.220Z,32.20
2018-07-25T17:26:46.010Z,30.90
2018-07-25T17:29:13.790Z,30.40
2018-07-25T17:31:41.478Z,30.40
2018-07-25T17:34:09.285Z,30.40
2018-07-25T17:36:37.098Z,31.10
2018-07-25T17:39:07.641Z,31.40
2018-07-25T17:41:35.563Z,31.50
2018-07-25T17:44:03.351Z,31.90
2018-07-25T17:46:31.187Z,31.50
2018-07-25T17:48:59.062Z,31.70
2018-07-25T17:51:26.809Z,31.50
2018-07-25T17:53:54.605Z,32.70
2018-07-25T17:56:22.555Z,33.90
2018-07-25T17:58:50.347Z,34.90
2018-07-25T18:01:18.127Z,35.60
2018-07-25T18:03:45.882Z,36.50
2018-07-25T18:06:13.558Z,37.00
2018-07-25T18:11:09.259Z,37.50
2018-07-25T18:13:42.491Z,37.90
2018-07-25T18:16:10.441Z,38.40
2018-07-25T18:18:40.510Z,39.30
2018-07-25T18:21:09.254Z,39.40
2018-07-25T18:23:38.331Z,39.00
2018-07-25T18:26:06.623Z,38.30
2018-07-25T18:28:34.315Z,38.00
2018-07-25T18:31:02.983Z,40.20
2018-07-25T18:33:31.986Z,41.30
2018-07-25T18:35:59.807Z,42.20
2018-07-25T18:38:27.507Z,42.60
2018-07-25T18:40:56.702Z,41.30
2018-07-25T18:43:24.557Z,39.70
2018-07-25T18:45:52.528Z,37.80
2018-07-25T18:48:20.261Z,37.70
2018-07-25T18:50:48.078Z,36.70
2018-07-25T18:53:15.917Z,37.60
2018-07-25T18:55:44.427Z,37.00
2018-07-25T18:58:13.335Z,35.70
2018-07-25T19:00:44.247Z,35.30
2018-07-25T19:03:12.759Z,35.20
2018-07-25T19:05:40.722Z,35.50
2018-07-25T19:08:08.430Z,36.90
2018-07-25T19:10:36.339Z,36.60
2018-07-25T19:13:08.740Z,36.00
2018-07-25T19:15:36.482Z,35.70
2018-07-25T19:18:05.306Z,36.50
2018-07-25T19:20:33.558Z,37.30
2018-07-25T19:23:01.218Z,37.00
2018-07-25T19:25:28.911Z,36.20
2018-07-25T19:27:57.098Z,36.90
2018-07-25T19:30:24.890Z,37.80
2018-07-25T19:32:53.400Z,37.60
2018-07-25T19:35:22.327Z,39.00
2018-07-25T19:37:50.027Z,40.50
2018-07-25T19:40:18.266Z,40.40
2018-07-25T19:42:46.622Z,40.30
2018-07-25T19:45:14.523Z,40.10
2018-07-25T19:47:42.251Z,39.30
2018-07-25T19:50:09.997Z,38.40
2018-07-25T19:52:38.692Z,38.00
2018-07-25T19:55:06.702Z,37.70
2018-07-25T19:57:34.527Z,37.60
2018-07-25T20:00:02.287Z,38.00
2018-07-25T20:02:30.155Z,38.60
2018-07-25T20:04:57.826Z,37.90
2018-07-25T20:07:25.591Z,38.50
2018-07-25T20:09:53.226Z,39.10
2018-07-25T20:12:20.988Z,38.40
2018-07-25T20:14:54.266Z,38.50
2018-07-25T20:17:22.041Z,38.40
2018-07-25T20:19:50.082Z,38.40
2018-07-25T20:22:17.846Z,38.40
2018-07-25T20:24:45.674Z,38.80
2018-07-25T20:27:13.690Z,39.20
2018-07-25T20:29:41.874Z,39.10
2018-07-25T20:32:10.634Z,39.40
2018-07-25T20:34:38.379Z,39.80
2018-07-25T20:37:06.350Z,40.30
2018-07-25T20:39:34.255Z,40.10
2018-07-25T20:42:02.111Z,39.90
2018-07-25T20:44:29.940Z,40.00
2018-07-25T20:46:57.731Z,39.70
2018-07-25T20:49:25.515Z,39.20
2018-07-25T20:51:53.198Z,39.40
2018-07-25T20:54:20.922Z,41.10
2018-07-25T20:56:48.728Z,42.60
2018-07-25T20:59:16.371Z,42.00
2018-07-25T21:01:44.178Z,41.60
2018-07-25T21:04:11.834Z,41.70
2018-07-25T21:06:39.622Z,41.50
2018-07-25T21:09:07.897Z,41.40
2018-07-25T21:11:35.668Z,41.30
2018-07-25T21:14:03.487Z,41.40
2018-07-25T21:16:31.303Z,41.90
2018-07-25T21:18:59.005Z,44.10
2018-07-25T21:21:27.009Z,43.70
2018-07-25T21:23:54.772Z,43.00
2018-07-25T21:26:22.505Z,42.70
2018-07-25T21:28:50.158Z,43.50
2018-07-25T21:31:17.851Z,43.70
2018-07-25T21:33:45.576Z,43.30
2018-07-25T21:36:13.207Z,42.90
2018-07-25T21:38:41.005Z,42.30
2018-07-25T21:41:08.721Z,42.20
2018-07-25T21:43:36.559Z,42.40
